sensor_id;sensor_type;location;lat;lon;timestamp;pressure;altitude;pressure_sealevel;temperature;humidity
81865;BME280;71313;43.514;1.500;2024-02-28T00:01:02;100395.59;;;8.82;72.33
81865;BME280;71313;43.514;1.500;2024-02-28T00:03:27;100403.88;;;8.77;72.28
81865;BME280;71313;43.514;1.500;2024-02-28T00:05:53;100402.59;;;8.85;72.37
81865;BME280;71313;43.514;1.500;2024-02-28T00:08:18;100406.84;;;8.89;72.25
81865;BME280;71313;43.514;1.500;2024-02-28T00:10:45;100406.84;;;8.89;72.31
81865;BME280;71313;43.514;1.500;2024-02-28T00:13:11;100413.47;;;8.82;71.97
81865;BME280;71313;43.514;1.500;2024-02-28T00:15:36;100417.41;;;8.74;72.39
81865;BME280;71313;43.514;1.500;2024-02-28T00:18:01;100421.81;;;8.75;72.81
81865;BME280;71313;43.514;1.500;2024-02-28T00:20:28;100421.25;;;8.69;72.84
81865;BME280;71313;43.514;1.500;2024-02-28T00:22:55;100423.84;;;8.70;72.36
81865;BME280;71313;43.514;1.500;2024-02-28T00:25:20;100426.13;;;8.78;72.68
81865;BME280;71313;43.514;1.500;2024-02-28T00:27:45;100432.13;;;8.66;72.48
81865;BME280;71313;43.514;1.500;2024-02-28T00:30:11;100434.09;;;8.62;72.83
81865;BME280;71313;43.514;1.500;2024-02-28T00:32:36;100442.59;;;8.70;72.49
81865;BME280;71313;43.514;1.500;2024-02-28T00:35:02;100437.00;;;8.75;71.98
81865;BME280;71313;43.514;1.500;2024-02-28T00:37:28;100437.25;;;8.53;72.32
81865;BME280;71313;43.514;1.500;2024-02-28T00:39:53;100440.22;;;8.64;72.41
81865;BME280;71313;43.514;1.500;2024-02-28T00:42:19;100436.22;;;8.73;71.98
81865;BME280;71313;43.514;1.500;2024-02-28T00:44:44;100438.03;;;8.72;71.91
81865;BME280;71313;43.514;1.500;2024-02-28T00:47:10;100442.50;;;8.72;72.32
81865;BME280;71313;43.514;1.500;2024-02-28T00:49:35;100432.75;;;8.71;71.60
81865;BME280;71313;43.514;1.500;2024-02-28T00:52:01;100436.13;;;8.57;71.78
81865;BME280;71313;43.514;1.500;2024-02-28T00:54:26;100434.41;;;8.56;72.37
81865;BME280;71313;43.514;1.500;2024-02-28T00:56:51;100441.97;;;8.65;71.89
81865;BME280;71313;43.514;1.500;2024-02-28T00:59:17;100437.63;;;8.63;72.26
81865;BME280;71313;43.514;1.500;2024-02-28T01:01:42;100434.72;;;8.67;71.96
81865;BME280;71313;43.514;1.500;2024-02-28T01:04:08;100430.63;;;8.60;71.91
81865;BME280;71313;43.514;1.500;2024-02-28T01:06:33;100428.44;;;8.51;72.63
81865;BME280;71313;43.514;1.500;2024-02-28T01:08:58;100428.44;;;8.68;71.91
81865;BME280;71313;43.514;1.500;2024-02-28T01:11:25;100425.13;;;8.63;72.04
81865;BME280;71313;43.514;1.500;2024-02-28T01:13:50;100424.50;;;8.58;71.79
81865;BME280;71313;43.514;1.500;2024-02-28T01:16:16;100429.69;;;8.61;72.07
81865;BME280;71313;43.514;1.500;2024-02-28T01:18:42;100433.31;;;8.60;72.03
81865;BME280;71313;43.514;1.500;2024-02-28T01:21:07;100434.25;;;8.76;71.79
81865;BME280;71313;43.514;1.500;2024-02-28T01:23:33;100438.56;;;8.62;72.05
81865;BME280;71313;43.514;1.500;2024-02-28T01:25:58;100429.53;;;8.64;71.45
81865;BME280;71313;43.514;1.500;2024-02-28T01:28:24;100445.41;;;8.67;71.92
81865;BME280;71313;43.514;1.500;2024-02-28T01:30:49;100442.13;;;8.62;71.61
81865;BME280;71313;43.514;1.500;2024-02-28T01:33:14;100443.06;;;8.61;71.33
81865;BME280;71313;43.514;1.500;2024-02-28T01:35:40;100447.00;;;8.54;71.85
81865;BME280;71313;43.514;1.500;2024-02-28T01:38:05;100444.47;;;8.51;72.02
81865;BME280;71313;43.514;1.500;2024-02-28T01:40:31;100447.06;;;8.53;72.10
81865;BME280;71313;43.514;1.500;2024-02-28T01:43:03;100440.22;;;8.64;71.66
81865;BME280;71313;43.514;1.500;2024-02-28T01:45:29;100448.25;;;8.64;71.47
81865;BME280;71313;43.514;1.500;2024-02-28T01:47:54;100450.31;;;8.42;71.31
81865;BME280;71313;43.514;1.500;2024-02-28T01:50:20;100453.28;;;8.53;71.07
81865;BME280;71313;43.514;1.500;2024-02-28T01:52:45;100456.44;;;8.61;71.50
81865;BME280;71313;43.514;1.500;2024-02-28T01:55:10;100451.78;;;8.65;71.75
81865;BME280;71313;43.514;1.500;2024-02-28T01:57:37;100449.66;;;8.54;71.39
81865;BME280;71313;43.514;1.500;2024-02-28T02:00:03;100451.00;;;8.63;71.61
81865;BME280;71313;43.514;1.500;2024-02-28T02:02:29;100448.41;;;8.61;71.31
81865;BME280;71313;43.514;1.500;2024-02-28T02:04:54;100449.66;;;8.54;71.73
81865;BME280;71313;43.514;1.500;2024-02-28T02:07:21;100442.28;;;8.59;71.62
81865;BME280;71313;43.514;1.500;2024-02-28T02:09:47;100456.28;;;8.64;71.59
81865;BME280;71313;43.514;1.500;2024-02-28T02:12:12;100453.44;;;8.50;71.87
81865;BME280;71313;43.514;1.500;2024-02-28T02:14:38;100456.44;;;8.61;71.68
81865;BME280;71313;43.514;1.500;2024-02-28T02:17:03;100450.59;;;8.70;71.14
81865;BME280;71313;43.514;1.500;2024-02-28T02:19:29;100460.28;;;8.73;71.07
81865;BME280;71313;43.514;1.500;2024-02-28T02:21:57;100462.88;;;8.57;70.96
81865;BME280;71313;43.514;1.500;2024-02-28T02:24:23;100456.91;;;8.52;71.52
81865;BME280;71313;43.514;1.500;2024-02-28T02:26:48;100457.06;;;8.49;71.60
81865;BME280;71313;43.514;1.500;2024-02-28T02:29:17;100449.34;;;8.43;71.34
81865;BME280;71313;43.514;1.500;2024-02-28T02:31:42;100456.19;;;8.49;71.78
81865;BME280;71313;43.514;1.500;2024-02-28T02:34:07;100453.59;;;8.47;71.77
81865;BME280;71313;43.514;1.500;2024-02-28T02:36:33;100448.25;;;8.47;71.00
81865;BME280;71313;43.514;1.500;2024-02-28T02:38:58;100451.88;;;8.46;71.59
81865;BME280;71313;43.514;1.500;2024-02-28T02:41:24;100448.41;;;8.44;71.57
81865;BME280;71313;43.514;1.500;2024-02-28T02:43:49;100459.56;;;8.35;71.17
81865;BME280;71313;43.514;1.500;2024-02-28T02:46:14;100449.97;;;8.48;71.07
81865;BME280;71313;43.514;1.500;2024-02-28T02:48:40;100467.22;;;8.42;71.62
81865;BME280;71313;43.514;1.500;2024-02-28T02:51:05;100457.63;;;8.56;71.22
81865;BME280;71313;43.514;1.500;2024-02-28T02:53:30;100455.19;;;8.51;71.10
81865;BME280;71313;43.514;1.500;2024-02-28T02:55:56;100461.06;;;8.58;70.47
81865;BME280;71313;43.514;1.500;2024-02-28T02:58:21;100456.97;;;8.33;70.73
81865;BME280;71313;43.514;1.500;2024-02-28T03:00:46;100462.56;;;8.46;70.41
81865;BME280;71313;43.514;1.500;2024-02-28T03:03:12;100465.88;;;8.51;70.81
81865;BME280;71313;43.514;1.500;2024-02-28T03:05:37;100471.91;;;8.37;70.79
81865;BME280;71313;43.514;1.500;2024-02-28T03:08:03;100471.75;;;8.40;71.12
81865;BME280;71313;43.514;1.500;2024-02-28T03:10:29;100482.38;;;8.42;70.85
81865;BME280;71313;43.514;1.500;2024-02-28T03:12:54;100475.63;;;8.35;70.65
81865;BME280;71313;43.514;1.500;2024-02-28T03:15:19;100482.25;;;8.26;71.52
81865;BME280;71313;43.514;1.500;2024-02-28T03:17:45;100475.72;;;8.32;71.19
81865;BME280;71313;43.514;1.500;2024-02-28T03:20:11;100484.84;;;8.28;71.36
81865;BME280;71313;43.514;1.500;2024-02-28T03:22:38;100478.38;;;8.33;70.97
81865;BME280;71313;43.514;1.500;2024-02-28T03:25:04;100487.44;;;8.29;70.75
81865;BME280;71313;43.514;1.500;2024-02-28T03:27:29;100494.53;;;8.30;70.64
81865;BME280;71313;43.514;1.500;2024-02-28T03:29:55;100490.28;;;8.26;71.20
81865;BME280;71313;43.514;1.500;2024-02-28T03:32:20;100502.47;;;8.32;70.81
81865;BME280;71313;43.514;1.500;2024-02-28T03:34:46;100489.25;;;8.29;70.15
81865;BME280;71313;43.514;1.500;2024-02-28T03:37:11;100499.78;;;8.32;70.42
81865;BME280;71313;43.514;1.500;2024-02-28T03:39:37;100503.13;;;8.37;70.23
81865;BME280;71313;43.514;1.500;2024-02-28T03:42:02;100504.50;;;8.27;70.62
81865;BME280;71313;43.514;1.500;2024-02-28T03:44:28;100507.97;;;8.29;70.69
81865;BME280;71313;43.514;1.500;2024-02-28T03:46:53;100508.84;;;8.29;70.48
81865;BME280;71313;43.514;1.500;2024-02-28T03:49:19;100512.19;;;8.34;70.54
81865;BME280;71313;43.514;1.500;2024-02-28T03:51:44;100507.81;;;8.32;70.42
81865;BME280;71313;43.514;1.500;2024-02-28T03:54:10;100508.97;;;8.45;70.18
81865;BME280;71313;43.514;1.500;2024-02-28T03:56:36;100504.34;;;8.49;69.84
81865;BME280;71313;43.514;1.500;2024-02-28T03:59:01;100510.84;;;8.43;69.78
81865;BME280;71313;43.514;1.500;2024-02-28T04:01:27;100510.06;;;8.41;69.85
81865;BME280;71313;43.514;1.500;2024-02-28T04:03:52;100509.44;;;8.36;69.49
81865;BME280;71313;43.514;1.500;2024-02-28T04:06:18;100511.31;;;8.34;70.00
81865;BME280;71313;43.514;1.500;2024-02-28T04:08:43;100512.38;;;8.30;69.98
81865;BME280;71313;43.514;1.500;2024-02-28T04:11:09;100514.78;;;8.36;69.24
81865;BME280;71313;43.514;1.500;2024-02-28T04:13:35;100518.66;;;8.29;69.74
81865;BME280;71313;43.514;1.500;2024-02-28T04:16:02;100518.09;;;8.22;70.06
81865;BME280;71313;43.514;1.500;2024-02-28T04:18:28;100509.72;;;8.11;70.13
81865;BME280;71313;43.514;1.500;2024-02-28T04:20:53;100515.66;;;8.18;70.05
81865;BME280;71313;43.514;1.500;2024-02-28T04:23:19;100519.59;;;8.28;70.06
81865;BME280;71313;43.514;1.500;2024-02-28T04:25:44;100527.34;;;8.34;69.67
81865;BME280;71313;43.514;1.500;2024-02-28T04:28:10;100526.03;;;8.24;69.44
81865;BME280;71313;43.514;1.500;2024-02-28T04:30:35;100528.56;;;8.27;69.40
81865;BME280;71313;43.514;1.500;2024-02-28T04:33:01;100535.06;;;8.21;69.89
81865;BME280;71313;43.514;1.500;2024-02-28T04:35:26;100533.41;;;8.19;69.51
81865;BME280;71313;43.514;1.500;2024-02-28T04:37:52;100529.66;;;8.23;69.16
81865;BME280;71313;43.514;1.500;2024-02-28T04:40:17;100536.34;;;8.31;69.11
81865;BME280;71313;43.514;1.500;2024-02-28T04:42:42;100545.53;;;8.26;69.07
81865;BME280;71313;43.514;1.500;2024-02-28T04:45:09;100545.97;;;8.17;69.62
81865;BME280;71313;43.514;1.500;2024-02-28T04:47:34;100549.69;;;8.33;69.62
81865;BME280;71313;43.514;1.500;2024-02-28T04:50:01;100551.31;;;8.17;69.29
81865;BME280;71313;43.514;1.500;2024-02-28T04:52:26;100553.22;;;8.14;69.51
81865;BME280;71313;43.514;1.500;2024-02-28T04:54:52;100552.91;;;8.21;69.58
81865;BME280;71313;43.514;1.500;2024-02-28T04:57:18;100546.56;;;8.23;69.60
81865;BME280;71313;43.514;1.500;2024-02-28T04:59:44;100550.75;;;8.29;69.23
81865;BME280;71313;43.514;1.500;2024-02-28T05:02:10;100556.22;;;8.26;69.14
81865;BME280;71313;43.514;1.500;2024-02-28T05:04:35;100550.88;;;8.26;69.25
81865;BME280;71313;43.514;1.500;2024-02-28T05:07:00;100553.63;;;8.24;69.26
81865;BME280;71313;43.514;1.500;2024-02-28T05:09:26;100552.28;;;8.15;69.92
81865;BME280;71313;43.514;1.500;2024-02-28T05:11:51;100560.28;;;8.15;70.13
81865;BME280;71313;43.514;1.500;2024-02-28T05:14:17;100560.28;;;8.15;69.54
81865;BME280;71313;43.514;1.500;2024-02-28T05:16:42;100569.69;;;8.05;69.71
81865;BME280;71313;43.514;1.500;2024-02-28T05:19:07;100570.41;;;8.09;69.37
81865;BME280;71313;43.514;1.500;2024-02-28T05:21:41;100568.66;;;8.08;69.67
81865;BME280;71313;43.514;1.500;2024-02-28T05:24:07;100565.41;;;8.01;69.61
81865;BME280;71313;43.514;1.500;2024-02-28T05:26:34;100572.41;;;8.23;69.68
81865;BME280;71313;43.514;1.500;2024-02-28T05:29:00;100570.47;;;8.07;69.48
81865;BME280;71313;43.514;1.500;2024-02-28T05:31:26;100570.69;;;8.22;69.72
81865;BME280;71313;43.514;1.500;2024-02-28T05:33:53;100568.81;;;8.24;69.00
81865;BME280;71313;43.514;1.500;2024-02-28T05:36:20;100570.84;;;8.19;69.37
81865;BME280;71313;43.514;1.500;2024-02-28T05:38:46;100573.81;;;8.12;69.15
81865;BME280;71313;43.514;1.500;2024-02-28T05:41:11;100577.78;;;8.04;69.83
81865;BME280;71313;43.514;1.500;2024-02-28T05:43:38;100573.88;;;7.92;70.15
81865;BME280;71313;43.514;1.500;2024-02-28T05:46:03;100580.94;;;7.93;69.73
81865;BME280;71313;43.514;1.500;2024-02-28T05:48:29;100582.25;;;8.03;69.54
81865;BME280;71313;43.514;1.500;2024-02-28T05:50:54;100581.25;;;8.06;69.65
81865;BME280;71313;43.514;1.500;2024-02-28T05:53:19;100588.53;;;8.02;69.98
81865;BME280;71313;43.514;1.500;2024-02-28T05:55:45;100588.03;;;8.13;69.66
81865;BME280;71313;43.514;1.500;2024-02-28T05:58:10;100594.38;;;8.10;69.27
81865;BME280;71313;43.514;1.500;2024-02-28T06:00:36;100591.50;;;7.96;69.75
81865;BME280;71313;43.514;1.500;2024-02-28T06:03:02;100599.38;;;7.99;69.64
81865;BME280;71313;43.514;1.500;2024-02-28T06:05:28;100599.00;;;7.88;69.45
81865;BME280;71313;43.514;1.500;2024-02-28T06:07:53;100605.06;;;7.73;70.12
81865;BME280;71313;43.514;1.500;2024-02-28T06:10:19;100615.16;;;7.85;70.09
81865;BME280;71313;43.514;1.500;2024-02-28T06:12:46;100613.94;;;7.92;69.29
81865;BME280;71313;43.514;1.500;2024-02-28T06:15:11;100597.25;;;7.87;69.76
81865;BME280;71313;43.514;1.500;2024-02-28T06:17:36;100624.91;;;7.86;69.98
81865;BME280;71313;43.514;1.500;2024-02-28T06:20:02;100609.97;;;7.82;69.62
81865;BME280;71313;43.514;1.500;2024-02-28T06:22:27;100621.97;;;7.92;69.53
81865;BME280;71313;43.514;1.500;2024-02-28T06:24:53;100626.88;;;8.01;69.15
81865;BME280;71313;43.514;1.500;2024-02-28T06:27:18;100621.03;;;7.93;69.82
81865;BME280;71313;43.514;1.500;2024-02-28T06:29:44;100632.00;;;8.06;69.50
81865;BME280;71313;43.514;1.500;2024-02-28T06:32:09;100627.81;;;8.00;68.70
81865;BME280;71313;43.514;1.500;2024-02-28T06:34:34;100635.91;;;7.80;69.85
81865;BME280;71313;43.514;1.500;2024-02-28T06:37:00;100640.28;;;7.81;70.08
81865;BME280;71313;43.514;1.500;2024-02-28T06:39:25;100636.22;;;7.54;70.41
81865;BME280;71313;43.514;1.500;2024-02-28T06:41:51;100631.88;;;7.51;71.03
81865;BME280;71313;43.514;1.500;2024-02-28T06:44:18;100644.63;;;7.65;70.37
81865;BME280;71313;43.514;1.500;2024-02-28T06:46:43;100646.34;;;7.66;70.25
81865;BME280;71313;43.514;1.500;2024-02-28T06:49:09;100642.00;;;7.63;70.73
81865;BME280;71313;43.514;1.500;2024-02-28T06:51:34;100644.44;;;7.49;71.27
81865;BME280;71313;43.514;1.500;2024-02-28T06:53:59;100648.91;;;7.48;71.16
81865;BME280;71313;43.514;1.500;2024-02-28T06:56:25;100652.31;;;7.52;70.73
81865;BME280;71313;43.514;1.500;2024-02-28T06:58:50;100660.19;;;7.55;70.76
81865;BME280;71313;43.514;1.500;2024-02-28T07:01:17;100658.25;;;7.38;71.04
81865;BME280;71313;43.514;1.500;2024-02-28T07:03:42;100672.13;;;7.46;71.65
81865;BME280;71313;43.514;1.500;2024-02-28T07:06:08;100664.91;;;7.48;70.96
81865;BME280;71313;43.514;1.500;2024-02-28T07:08:33;100675.06;;;7.40;71.51
81865;BME280;71313;43.514;1.500;2024-02-28T07:10:59;100675.47;;;7.52;70.88
81865;BME280;71313;43.514;1.500;2024-02-28T07:13:24;100675.78;;;7.64;70.66
81865;BME280;71313;43.514;1.500;2024-02-28T07:15:49;100671.06;;;7.71;70.27
81865;BME280;71313;43.514;1.500;2024-02-28T07:18:16;100681.88;;;7.68;70.67
81865;BME280;71313;43.514;1.500;2024-02-28T07:20:41;100684.53;;;7.68;69.79
81865;BME280;71313;43.514;1.500;2024-02-28T07:23:06;100682.13;;;7.62;70.56
81865;BME280;71313;43.514;1.500;2024-02-28T07:25:32;100690.69;;;7.70;70.47
81865;BME280;71313;43.514;1.500;2024-02-28T07:27:58;100688.94;;;7.69;70.47
81865;BME280;71313;43.514;1.500;2024-02-28T07:30:26;100685.06;;;7.76;70.10
81865;BME280;71313;43.514;1.500;2024-02-28T07:32:51;100687.75;;;7.76;70.12
81865;BME280;71313;43.514;1.500;2024-02-28T07:35:17;100694.41;;;7.66;70.79
81865;BME280;71313;43.514;1.500;2024-02-28T07:37:44;100693.28;;;7.71;70.29
81865;BME280;71313;43.514;1.500;2024-02-28T07:40:09;100700.50;;;7.69;70.16
81865;BME280;71313;43.514;1.500;2024-02-28T07:42:35;100695.88;;;7.73;69.89
81865;BME280;71313;43.514;1.500;2024-02-28T07:45:02;100687.88;;;7.73;69.07
81865;BME280;71313;43.514;1.500;2024-02-28T07:47:27;100685.88;;;7.78;69.85
81865;BME280;71313;43.514;1.500;2024-02-28T07:49:52;100692.28;;;7.74;69.45
81865;BME280;71313;43.514;1.500;2024-02-28T07:52:19;100704.00;;;7.90;69.60
81865;BME280;71313;43.514;1.500;2024-02-28T07:54:45;100723.63;;;7.89;69.12
81865;BME280;71313;43.514;1.500;2024-02-28T07:57:10;100707.00;;;7.82;69.26
81865;BME280;71313;43.514;1.500;2024-02-28T07:59:40;100711.06;;;7.91;69.10
81865;BME280;71313;43.514;1.500;2024-02-28T08:02:06;100712.94;;;7.89;69.38
81865;BME280;71313;43.514;1.500;2024-02-28T08:04:31;100716.66;;;8.05;69.14
81865;BME280;71313;43.514;1.500;2024-02-28T08:06:57;100711.59;;;7.99;68.83
81865;BME280;71313;43.514;1.500;2024-02-28T08:09:22;100703.59;;;7.99;69.33
81865;BME280;71313;43.514;1.500;2024-02-28T08:11:48;100715.44;;;8.12;68.68
81865;BME280;71313;43.514;1.500;2024-02-28T08:14:13;100723.59;;;8.09;68.51
81865;BME280;71313;43.514;1.500;2024-02-28T08:16:39;100722.25;;;8.20;68.28
81865;BME280;71313;43.514;1.500;2024-02-28T08:19:04;100718.47;;;8.44;67.64
81865;BME280;71313;43.514;1.500;2024-02-28T08:21:29;100734.16;;;8.33;67.95
81865;BME280;71313;43.514;1.500;2024-02-28T08:23:55;100719.16;;;8.29;68.06
81865;BME280;71313;43.514;1.500;2024-02-28T08:26:23;100725.88;;;8.19;67.51
81865;BME280;71313;43.514;1.500;2024-02-28T08:28:48;100722.91;;;8.45;67.62
81865;BME280;71313;43.514;1.500;2024-02-28T08:31:14;100727.38;;;8.44;67.40
81865;BME280;71313;43.514;1.500;2024-02-28T08:33:40;100739.59;;;8.30;67.22
81865;BME280;71313;43.514;1.500;2024-02-28T08:36:06;100744.22;;;8.26;67.79
81865;BME280;71313;43.514;1.500;2024-02-28T08:38:31;100747.63;;;8.50;67.32
81865;BME280;71313;43.514;1.500;2024-02-28T08:40:57;100752.09;;;8.50;66.81
81865;BME280;71313;43.514;1.500;2024-02-28T08:43:22;100750.00;;;8.56;66.99
81865;BME280;71313;43.514;1.500;2024-02-28T08:45:47;100749.63;;;8.45;66.02
81865;BME280;71313;43.514;1.500;2024-02-28T08:48:15;100744.84;;;8.33;65.88
81865;BME280;71313;43.514;1.500;2024-02-28T08:50:40;100745.56;;;8.36;66.52
81865;BME280;71313;43.514;1.500;2024-02-28T08:53:06;100742.97;;;8.35;65.67
81865;BME280;71313;43.514;1.500;2024-02-28T08:55:32;100743.84;;;8.35;66.13
81865;BME280;71313;43.514;1.500;2024-02-28T08:57:57;100743.34;;;8.26;66.20
81865;BME280;71313;43.514;1.500;2024-02-28T09:00:22;100733.53;;;8.26;66.86
81865;BME280;71313;43.514;1.500;2024-02-28T09:02:48;100742.28;;;8.30;65.27
81865;BME280;71313;43.514;1.500;2024-02-28T09:05:14;100741.25;;;8.34;66.41
81865;BME280;71313;43.514;1.500;2024-02-28T09:07:39;100749.91;;;8.39;65.83
81865;BME280;71313;43.514;1.500;2024-02-28T09:10:05;100749.63;;;8.45;66.16
81865;BME280;71313;43.514;1.500;2024-02-28T09:12:31;100754.47;;;8.17;65.81
81865;BME280;71313;43.514;1.500;2024-02-28T09:14:56;100753.13;;;8.27;66.31
81865;BME280;71313;43.514;1.500;2024-02-28T09:17:24;100753.78;;;8.32;66.35
81865;BME280;71313;43.514;1.500;2024-02-28T09:19:49;100754.47;;;8.37;65.86
81865;BME280;71313;43.514;1.500;2024-02-28T09:22:15;100745.16;;;8.45;65.90
81865;BME280;71313;43.514;1.500;2024-02-28T09:24:42;100738.66;;;8.51;65.73
81865;BME280;71313;43.514;1.500;2024-02-28T09:27:07;100725.78;;;8.59;65.64
81865;BME280;71313;43.514;1.500;2024-02-28T09:29:33;100732.44;;;8.51;65.84
81865;BME280;71313;43.514;1.500;2024-02-28T09:31:58;100718.13;;;8.70;65.47
81865;BME280;71313;43.514;1.500;2024-02-28T09:34:24;100702.66;;;8.58;65.59
81865;BME280;71313;43.514;1.500;2024-02-28T09:36:49;100716.97;;;8.57;65.07
81865;BME280;71313;43.514;1.500;2024-02-28T09:39:15;100712.28;;;8.62;65.84
81865;BME280;71313;43.514;1.500;2024-02-28T09:41:41;100712.78;;;8.70;65.08
81865;BME280;71313;43.514;1.500;2024-02-28T09:44:07;100723.47;;;8.70;64.81
81865;BME280;71313;43.514;1.500;2024-02-28T09:46:33;100724.09;;;8.94;65.08
81865;BME280;71313;43.514;1.500;2024-02-28T09:49:03;100727.00;;;9.26;63.87
81865;BME280;71313;43.514;1.500;2024-02-28T09:51:32;100727.03;;;9.43;63.58
81865;BME280;71313;43.514;1.500;2024-02-28T09:53:59;100711.91;;;9.42;63.01
81865;BME280;71313;43.514;1.500;2024-02-28T09:56:25;100717.25;;;9.59;62.82
81865;BME280;71313;43.514;1.500;2024-02-28T09:58:51;100722.06;;;9.87;62.59
81865;BME280;71313;43.514;1.500;2024-02-28T10:01:19;100718.50;;;9.87;61.74
81865;BME280;71313;43.514;1.500;2024-02-28T10:03:47;100713.13;;;10.21;62.32
81865;BME280;71313;43.514;1.500;2024-02-28T10:06:14;100727.44;;;10.37;61.22
81865;BME280;71313;43.514;1.500;2024-02-28T10:08:41;100728.88;;;10.43;60.73
81865;BME280;71313;43.514;1.500;2024-02-28T10:11:06;100734.19;;;10.60;60.47
81865;BME280;71313;43.514;1.500;2024-02-28T10:13:32;100745.81;;;10.77;59.92
81865;BME280;71313;43.514;1.500;2024-02-28T10:15:57;100747.56;;;10.93;59.70
81865;BME280;71313;43.514;1.500;2024-02-28T10:18:23;100750.16;;;11.11;60.11
81865;BME280;71313;43.514;1.500;2024-02-28T10:20:50;100749.53;;;10.90;58.55
81865;BME280;71313;43.514;1.500;2024-02-28T10:23:16;100747.94;;;10.54;57.86
81865;BME280;71313;43.514;1.500;2024-02-28T10:25:44;100743.53;;;10.53;58.37
81865;BME280;71313;43.514;1.500;2024-02-28T10:28:10;100745.91;;;10.75;57.68
81865;BME280;71313;43.514;1.500;2024-02-28T10:30:42;100752.84;;;10.95;57.31
81865;BME280;71313;43.514;1.500;2024-02-28T10:33:15;100762.19;;;11.19;57.28
81865;BME280;71313;43.514;1.500;2024-02-28T10:35:43;100753.00;;;11.23;57.03
81865;BME280;71313;43.514;1.500;2024-02-28T10:38:11;100742.38;;;11.52;56.45
81865;BME280;71313;43.514;1.500;2024-02-28T10:40:38;100746.75;;;11.98;56.50
81865;BME280;71313;43.514;1.500;2024-02-28T10:43:05;100751.03;;;12.45;55.72
81865;BME280;71313;43.514;1.500;2024-02-28T10:45:38;100748.25;;;13.02;54.52
81865;BME280;71313;43.514;1.500;2024-02-28T10:48:06;100733.59;;;14.00;52.68
81865;BME280;71313;43.514;1.500;2024-02-28T10:50:33;100719.13;;;14.77;50.70
81865;BME280;71313;43.514;1.500;2024-02-28T10:53:02;100715.69;;;15.70;45.88
81865;BME280;71313;43.514;1.500;2024-02-28T10:55:37;100715.31;;;17.10;44.54
81865;BME280;71313;43.514;1.500;2024-02-28T10:58:08;100714.50;;;17.74;42.54
81865;BME280;71313;43.514;1.500;2024-02-28T11:00:38;100717.66;;;17.47;44.06
81865;BME280;71313;43.514;1.500;2024-02-28T11:03:04;100717.09;;;16.67;43.07
81865;BME280;71313;43.514;1.500;2024-02-28T11:08:19;100726.94;;;15.53;43.57
81865;BME280;71313;43.514;1.500;2024-02-28T11:10:45;100723.19;;;15.43;46.33
81865;BME280;71313;43.514;1.500;2024-02-28T11:13:22;100728.53;;;15.90;44.29
81865;BME280;71313;43.514;1.500;2024-02-28T11:15:47;100731.84;;;16.40;44.24
81865;BME280;71313;43.514;1.500;2024-02-28T11:18:12;100718.19;;;17.41;42.61
81865;BME280;71313;43.514;1.500;2024-02-28T11:20:38;100712.97;;;18.84;40.66
81865;BME280;71313;43.514;1.500;2024-02-28T11:23:06;100712.59;;;20.33;37.88
81865;BME280;71313;43.514;1.500;2024-02-28T11:25:32;100704.75;;;21.22;36.92
81865;BME280;71313;43.514;1.500;2024-02-28T11:27:57;100705.00;;;21.64;36.59
81865;BME280;71313;43.514;1.500;2024-02-28T11:30:24;100697.81;;;21.45;33.17
81865;BME280;71313;43.514;1.500;2024-02-28T11:32:52;100698.38;;;21.66;33.84
81865;BME280;71313;43.514;1.500;2024-02-28T11:35:18;100698.91;;;21.52;33.06
81865;BME280;71313;43.514;1.500;2024-02-28T11:37:45;100702.00;;;22.37;30.86
81865;BME280;71313;43.514;1.500;2024-02-28T11:40:12;100709.91;;;21.25;30.89
81865;BME280;71313;43.514;1.500;2024-02-28T11:42:38;100710.28;;;21.02;32.79
81865;BME280;71313;43.514;1.500;2024-02-28T11:45:04;100703.31;;;22.24;32.62
81865;BME280;71313;43.514;1.500;2024-02-28T11:47:31;100685.66;;;22.79;31.17
81865;BME280;71313;43.514;1.500;2024-02-28T11:49:59;100693.03;;;23.45;30.49
81865;BME280;71313;43.514;1.500;2024-02-28T11:52:26;100681.28;;;23.77;28.97
81865;BME280;71313;43.514;1.500;2024-02-28T11:54:51;100676.63;;;24.18;28.87
81865;BME280;71313;43.514;1.500;2024-02-28T11:57:17;100683.78;;;24.99;29.21
81865;BME280;71313;43.514;1.500;2024-02-28T11:59:44;100686.22;;;24.30;28.73
81865;BME280;71313;43.514;1.500;2024-02-28T12:02:14;100687.91;;;24.23;27.82
81865;BME280;71313;43.514;1.500;2024-02-28T12:04:42;100682.66;;;23.73;28.39
81865;BME280;71313;43.514;1.500;2024-02-28T12:07:09;100688.41;;;23.21;28.49
81865;BME280;71313;43.514;1.500;2024-02-28T12:09:35;100678.88;;;22.57;29.08
81865;BME280;71313;43.514;1.500;2024-02-28T12:12:01;100695.47;;;23.56;28.71
81865;BME280;71313;43.514;1.500;2024-02-28T12:14:27;100667.91;;;23.66;27.91
81865;BME280;71313;43.514;1.500;2024-02-28T12:16:52;100671.84;;;24.75;27.54
81865;BME280;71313;43.514;1.500;2024-02-28T12:19:18;100663.94;;;25.42;24.59
81865;BME280;71313;43.514;1.500;2024-02-28T12:21:46;100683.94;;;24.50;25.22
81865;BME280;71313;43.514;1.500;2024-02-28T12:24:11;100679.50;;;23.43;26.36
81865;BME280;71313;43.514;1.500;2024-02-28T12:26:38;100667.91;;;23.66;26.40
81865;BME280;71313;43.514;1.500;2024-02-28T12:29:03;100658.81;;;24.77;26.21
81865;BME280;71313;43.514;1.500;2024-02-28T12:31:29;100660.41;;;25.56;24.99
81865;BME280;71313;43.514;1.500;2024-02-28T12:33:54;100665.81;;;25.73;24.98
81865;BME280;71313;43.514;1.500;2024-02-28T12:36:20;100659.56;;;26.75;23.87
81865;BME280;71313;43.514;1.500;2024-02-28T12:38:46;100658.56;;;27.48;23.18
81865;BME280;71313;43.514;1.500;2024-02-28T12:41:11;100645.19;;;27.67;24.07
81865;BME280;71313;43.514;1.500;2024-02-28T12:43:38;100653.28;;;26.96;23.04
81865;BME280;71313;43.514;1.500;2024-02-28T12:46:04;100639.38;;;27.40;23.75
81865;BME280;71313;43.514;1.500;2024-02-28T12:48:31;100647.13;;;26.79;22.79
81865;BME280;71313;43.514;1.500;2024-02-28T12:50:57;100626.84;;;27.16;23.75
81865;BME280;71313;43.514;1.500;2024-02-28T12:53:22;100641.59;;;26.20;23.95